createdAt,value
2022-09-07T00:00:59.426Z,6.50
2022-09-07T00:03:02.738Z,6.63
2022-09-07T00:05:06.927Z,6.33
2022-09-07T00:07:09.604Z,6.60
2022-09-07T00:09:12.301Z,6.57
2022-09-07T00:11:16.371Z,6.30
2022-09-07T00:13:19.070Z,6.30
2022-09-07T00:15:21.731Z,6.30
2022-09-07T00:17:25.804Z,6.77
2022-09-07T00:19:28.866Z,5.83
2022-09-07T00:21:31.630Z,6.40
2022-09-07T00:23:34.596Z,6.23
2022-09-07T00:25:38.566Z,6.03
2022-09-07T00:27:41.738Z,6.70
2022-09-07T00:29:44.605Z,6.13
2022-09-07T00:31:47.416Z,6.03
2022-09-07T00:33:52.588Z,6.27
2022-09-07T00:35:55.403Z,6.17
2022-09-07T00:37:58.060Z,5.70
2022-09-07T00:40:00.781Z,6.60
2022-09-07T00:42:03.963Z,6.37
2022-09-07T00:44:33.331Z,5.63
2022-09-07T00:46:36.917Z,5.90
2022-09-07T00:48:41.474Z,5.83
2022-09-07T00:50:47.437Z,6.03
2022-09-07T00:52:52.071Z,5.90
2022-09-07T00:54:56.436Z,5.00
2022-09-07T00:56:59.136Z,5.93
2022-09-07T00:59:02.127Z,5.50
2022-09-07T01:01:04.850Z,6.07
2022-09-07T01:03:07.913Z,5.50
2022-09-07T01:05:14.507Z,5.70
2022-09-07T01:07:18.833Z,5.37
2022-09-07T01:09:23.004Z,6.23
2022-09-07T01:11:26.243Z,5.93
2022-09-07T01:13:28.960Z,6.27
2022-09-07T01:15:36.168Z,6.20
2022-09-07T01:17:50.329Z,5.93
2022-09-07T01:20:10.388Z,5.33
2022-09-07T01:22:25.167Z,5.70
2022-09-07T01:24:36.459Z,5.43
2022-09-07T01:26:55.865Z,5.97
2022-09-07T01:29:00.528Z,5.23
2022-09-07T01:31:06.148Z,5.60
2022-09-07T01:33:20.215Z,5.70
2022-09-07T01:35:23.910Z,5.73
2022-09-07T01:37:31.258Z,5.03
2022-09-07T01:39:38.085Z,5.60
2022-09-07T01:41:43.766Z,5.47
2022-09-07T01:43:48.280Z,5.20
2022-09-07T01:45:52.265Z,5.10
2022-09-07T01:47:55.628Z,5.30
2022-09-07T01:50:01.457Z,5.03
2022-09-07T01:52:06.405Z,4.90
2022-09-07T01:54:11.581Z,5.10
2022-09-07T01:56:14.790Z,5.40
2022-09-07T01:58:19.823Z,5.40
2022-09-07T02:00:23.076Z,5.20
2022-09-07T02:02:29.455Z,5.83
2022-09-07T02:04:34.139Z,5.13
2022-09-07T02:06:39.905Z,5.53
2022-09-07T02:08:44.163Z,5.10
2022-09-07T02:10:48.328Z,4.73
2022-09-07T02:12:53.799Z,4.80
2022-09-07T02:14:57.993Z,5.50
2022-09-07T02:17:03.001Z,4.73
2022-09-07T02:19:09.508Z,5.23
2022-09-07T02:21:12.277Z,5.17
2022-09-07T02:23:19.442Z,5.60
2022-09-07T02:25:23.782Z,5.00
2022-09-07T02:27:30.294Z,4.57
2022-09-07T02:29:33.149Z,5.40
2022-09-07T02:31:36.265Z,5.07
2022-09-07T02:33:38.940Z,5.30
2022-09-07T02:35:42.963Z,4.33
2022-09-07T02:37:45.657Z,4.97
2022-09-07T02:39:49.290Z,4.53
2022-09-07T02:41:52.158Z,4.90
2022-09-07T02:43:54.970Z,4.60
2022-09-07T02:46:11.639Z,4.67
2022-09-07T02:48:17.592Z,4.37
2022-09-07T02:50:30.592Z,4.80
2022-09-07T02:52:38.380Z,5.00
2022-09-07T02:54:47.320Z,5.10
2022-09-07T02:56:55.043Z,4.53
2022-09-07T02:59:05.367Z,4.60
2022-09-07T03:01:10.272Z,4.30
2022-09-07T03:03:17.735Z,4.53
2022-09-07T03:05:21.809Z,5.10
2022-09-07T03:07:25.362Z,4.77
2022-09-07T03:09:30.699Z,4.67
2022-09-07T03:11:37.200Z,5.10
2022-09-07T03:13:39.917Z,4.33
2022-09-07T03:15:42.633Z,4.63
2022-09-07T03:17:45.331Z,3.90
2022-09-07T03:19:48.406Z,4.40
2022-09-07T03:21:51.129Z,4.30
2022-09-07T03:23:54.854Z,4.73
2022-09-07T03:25:58.830Z,5.30
2022-09-07T03:28:02.024Z,4.90
2022-09-07T03:30:05.443Z,4.30
2022-09-07T03:32:08.218Z,4.23
2022-09-07T03:34:10.895Z,4.37
2022-09-07T03:36:13.956Z,4.27
2022-09-07T03:38:16.690Z,4.53
2022-09-07T03:40:19.455Z,4.30
2022-09-07T03:42:23.580Z,4.20
2022-09-07T03:44:26.680Z,4.30
2022-09-07T03:46:29.404Z,4.40
2022-09-07T03:48:32.488Z,4.43
2022-09-07T03:50:35.311Z,4.30
2022-09-07T03:52:38.533Z,4.30
2022-09-07T03:54:41.229Z,3.40
2022-09-07T03:56:43.953Z,3.93
2022-09-07T03:58:48.538Z,4.40
2022-09-07T04:00:51.587Z,4.33
2022-09-07T04:02:54.347Z,4.33
2022-09-07T04:04:57.096Z,4.00
2022-09-07T04:06:59.752Z,4.57
2022-09-07T04:09:04.002Z,4.50
2022-09-07T04:11:08.147Z,4.43
2022-09-07T04:13:11.168Z,4.33
2022-09-07T04:15:18.134Z,4.53
2022-09-07T04:17:24.413Z,4.43
2022-09-07T04:19:27.256Z,4.17
2022-09-07T04:21:30.769Z,4.20
2022-09-07T04:23:33.462Z,4.50
2022-09-07T04:25:36.628Z,4.53
2022-09-07T04:27:39.318Z,4.80
2022-09-07T04:29:41.989Z,4.37
2022-09-07T04:31:46.072Z,4.40
2022-09-07T04:33:49.944Z,3.80
2022-09-07T04:35:52.736Z,4.03
2022-09-07T04:37:55.748Z,4.30
2022-09-07T04:39:58.478Z,4.37
2022-09-07T04:42:01.537Z,4.27
2022-09-07T04:44:05.066Z,4.47
2022-09-07T04:46:08.464Z,4.23
2022-09-07T04:48:12.485Z,4.00
2022-09-07T04:50:16.725Z,4.50
2022-09-07T04:52:19.421Z,4.50
2022-09-07T04:54:22.190Z,4.63
2022-09-07T04:56:24.979Z,4.87
2022-09-07T04:58:28.180Z,4.17
2022-09-07T05:00:31.996Z,5.07
2022-09-07T05:02:34.841Z,4.23
2022-09-07T05:04:38.868Z,4.27
2022-09-07T05:06:41.855Z,4.70
2022-09-07T05:08:45.408Z,4.60
2022-09-07T05:10:52.353Z,3.83
2022-09-07T05:12:55.073Z,4.53
2022-09-07T05:14:58.281Z,4.40
2022-09-07T05:17:01.013Z,4.40
2022-09-07T05:19:05.195Z,4.30
2022-09-07T05:21:11.228Z,4.13
2022-09-07T05:23:14.308Z,4.33
2022-09-07T05:25:17.172Z,4.17
2022-09-07T05:27:19.839Z,4.50
2022-09-07T05:31:45.761Z,4.30
2022-09-07T05:36:12.499Z,4.60
2022-09-07T05:38:15.203Z,4.57
2022-09-07T05:40:18.302Z,4.40
2022-09-07T05:42:21.026Z,3.83
2022-09-07T05:46:46.789Z,4.10
2022-09-07T05:48:49.811Z,4.00
2022-09-07T05:50:52.596Z,3.80
2022-09-07T05:52:56.550Z,4.70
2022-09-07T05:55:13.110Z,4.27
2022-09-07T05:57:21.904Z,4.33
2022-09-07T05:59:25.010Z,4.43
2022-09-07T06:01:28.043Z,4.47
2022-09-07T06:03:30.848Z,4.10
2022-09-07T06:05:33.598Z,4.50
2022-09-07T06:07:36.583Z,3.70
2022-09-07T06:12:09.005Z,4.40
2022-09-07T06:14:12.129Z,4.40
2022-09-07T06:16:15.187Z,4.60
2022-09-07T06:18:17.884Z,4.47
2022-09-07T06:20:20.598Z,4.33
2022-09-07T06:22:25.821Z,5.97
2022-09-07T06:24:31.577Z,4.77
2022-09-07T06:26:35.999Z,5.60
2022-09-07T06:28:39.604Z,5.27
2022-09-07T06:30:42.640Z,5.00
2022-09-07T06:32:45.753Z,5.23
2022-09-07T06:34:48.802Z,4.90
2022-09-07T06:36:51.618Z,5.20
2022-09-07T06:38:55.118Z,4.90
2022-09-07T06:43:25.688Z,5.37
2022-09-07T06:45:28.588Z,5.23
2022-09-07T06:47:34.156Z,5.20
2022-09-07T06:49:36.811Z,5.03
2022-09-07T06:51:39.648Z,4.63
2022-09-07T06:53:44.932Z,4.97
2022-09-07T06:55:48.371Z,5.87
2022-09-07T06:57:52.963Z,5.20
2022-09-07T06:59:56.928Z,6.30
2022-09-07T07:01:59.907Z,5.50
2022-09-07T07:04:03.162Z,5.33
2022-09-07T07:06:06.241Z,5.30
2022-09-07T07:08:09.072Z,5.57
2022-09-07T07:10:12.220Z,4.73
2022-09-07T07:14:17.877Z,4.90
2022-09-07T07:16:21.901Z,5.27
2022-09-07T07:18:25.014Z,4.97
2022-09-07T07:20:27.887Z,5.20
2022-09-07T07:22:46.014Z,5.70
2022-09-07T07:24:49.765Z,5.90
2022-09-07T07:26:53.182Z,5.33
2022-09-07T07:31:07.370Z,5.27
2022-09-07T07:33:33.035Z,6.03
2022-09-07T07:35:36.476Z,5.17
2022-09-07T07:37:39.211Z,5.30
2022-09-07T07:42:06.150Z,5.47
2022-09-07T07:44:12.849Z,5.13
2022-09-07T07:46:15.939Z,5.40
2022-09-07T07:48:18.703Z,5.40
2022-09-07T07:50:38.050Z,5.50
2022-09-07T07:55:42.899Z,5.00
2022-09-07T07:57:28.203Z,5.30
2022-09-07T07:59:31.390Z,5.20
2022-09-07T08:01:34.635Z,5.40
2022-09-07T08:03:37.982Z,4.63
2022-09-07T08:05:41.951Z,5.30
2022-09-07T08:07:45.001Z,4.83
2022-09-07T08:09:48.444Z,4.80
2022-09-07T08:11:51.201Z,5.13
2022-09-07T08:13:56.738Z,5.00
2022-09-07T08:15:59.534Z,4.63
2022-09-07T08:18:02.319Z,4.47
2022-09-07T08:20:05.209Z,4.93
2022-09-07T08:22:10.023Z,4.53
2022-09-07T08:24:12.810Z,4.50
2022-09-07T08:26:16.032Z,5.40
2022-09-07T08:28:18.676Z,5.10
2022-09-07T08:30:22.230Z,4.90
2022-09-07T08:32:24.847Z,5.23
2022-09-07T08:34:27.479Z,5.00
2022-09-07T08:36:31.898Z,4.63
2022-09-07T08:38:36.461Z,4.50
2022-09-07T08:40:39.163Z,5.50
2022-09-07T08:42:46.646Z,5.23
2022-09-07T08:44:50.996Z,4.93
2022-09-07T08:46:55.405Z,4.87
2022-09-07T08:48:58.202Z,4.90
2022-09-07T08:51:02.496Z,5.10
2022-09-07T08:53:07.924Z,4.70
2022-09-07T08:55:15.596Z,4.90
2022-09-07T08:57:21.242Z,4.90
2022-09-07T08:59:25.697Z,4.97
2022-09-07T09:01:31.634Z,4.90
2022-09-07T09:03:34.992Z,5.03
2022-09-07T09:06:03.030Z,4.57
2022-09-07T09:08:13.574Z,4.60
2022-09-07T09:10:21.332Z,4.20
2022-09-07T09:12:26.158Z,4.33
2022-09-07T09:14:31.509Z,4.90
2022-09-07T09:16:36.228Z,4.70
2022-09-07T09:18:46.594Z,4.67
2022-09-07T09:20:50.330Z,4.23
2022-09-07T09:22:53.436Z,4.73
2022-09-07T09:24:59.845Z,4.90
2022-09-07T09:27:03.806Z,4.80
2022-09-07T09:29:13.798Z,5.27
2022-09-07T09:31:19.325Z,4.57
2022-09-07T09:33:23.619Z,4.70
2022-09-07T09:35:30.099Z,4.90
2022-09-07T09:37:36.671Z,4.77
2022-09-07T09:39:39.957Z,4.63
2022-09-07T09:41:42.881Z,4.60
2022-09-07T09:43:48.110Z,5.13
2022-09-07T09:48:19.065Z,4.63
2022-09-07T09:52:51.614Z,5.00
2022-09-07T09:55:03.347Z,5.20
2022-09-07T09:57:16.187Z,5.20
2022-09-07T10:04:21.529Z,5.27
2022-09-07T10:06:27.138Z,4.53
2022-09-07T10:08:32.874Z,5.57
2022-09-07T10:10:35.767Z,5.80
2022-09-07T10:12:38.385Z,5.40
2022-09-07T10:14:44.915Z,5.47
2022-09-07T10:16:47.995Z,5.40
2022-09-07T10:18:55.688Z,6.33
2022-09-07T10:21:13.247Z,5.83
2022-09-07T10:23:24.623Z,6.20
2022-09-07T10:25:28.600Z,5.50
2022-09-07T10:27:34.090Z,6.03
2022-09-07T10:29:37.152Z,5.53
2022-09-07T10:31:47.595Z,5.63
2022-09-07T10:36:20.115Z,6.43
2022-09-07T10:38:25.093Z,6.10
2022-09-07T10:40:32.875Z,6.17
2022-09-07T10:42:36.851Z,5.83
2022-09-07T10:44:45.274Z,6.30
2022-09-07T10:46:58.356Z,5.67
2022-09-07T10:49:11.809Z,5.70
2022-09-07T10:51:17.115Z,5.87
2022-09-07T10:53:42.855Z,6.07
2022-09-07T10:55:49.413Z,6.30
2022-09-07T10:57:59.457Z,6.23
2022-09-07T11:00:09.709Z,6.03
2022-09-07T11:02:18.179Z,5.67
2022-09-07T11:04:32.560Z,6.70
2022-09-07T11:06:39.071Z,6.33
2022-09-07T11:11:18.619Z,5.87
2022-09-07T11:13:24.143Z,6.30
2022-09-07T11:15:28.751Z,5.63
2022-09-07T11:17:44.066Z,5.90
2022-09-07T11:19:51.129Z,6.40
2022-09-07T11:22:00.227Z,5.83
2022-09-07T11:24:09.814Z,5.73
2022-09-07T11:26:15.905Z,6.43
2022-09-07T11:28:21.437Z,6.30
2022-09-07T11:30:25.392Z,6.27
2022-09-07T11:32:29.921Z,6.10
2022-09-07T11:34:36.187Z,5.93
2022-09-07T11:36:41.564Z,5.90
2022-09-07T11:38:46.431Z,6.07
2022-09-07T11:40:56.319Z,6.07
2022-09-07T11:43:00.421Z,6.37
2022-09-07T11:45:07.016Z,6.37
2022-09-07T11:47:11.756Z,6.20
2022-09-07T11:49:19.147Z,5.90
2022-09-07T11:51:24.864Z,5.90
2022-09-07T11:53:28.616Z,6.23
2022-09-07T11:55:32.935Z,6.00
2022-09-07T11:57:45.034Z,6.20
2022-09-07T11:59:53.351Z,5.57
2022-09-07T12:02:05.553Z,6.03
2022-09-07T12:04:24.767Z,5.90
2022-09-07T12:06:45.440Z,6.10
2022-09-07T12:08:57.281Z,5.77
2022-09-07T12:11:07.752Z,6.07
2022-09-07T12:13:30.171Z,6.13
2022-09-07T12:15:36.287Z,5.83
2022-09-07T12:17:45.227Z,5.53
2022-09-07T12:19:47.851Z,6.33
2022-09-07T12:21:57.025Z,5.60
2022-09-07T12:24:01.785Z,5.97
2022-09-07T12:26:31.732Z,5.80
2022-09-07T12:28:58.099Z,5.10
2022-09-07T12:31:01.050Z,5.77
2022-09-07T12:33:05.927Z,5.70
2022-09-07T12:35:37.153Z,5.23
2022-09-07T12:37:42.396Z,5.07
2022-09-07T12:39:45.298Z,5.37
2022-09-07T12:42:31.840Z,5.77
2022-09-07T12:44:20.771Z,5.50
2022-09-07T12:46:44.791Z,5.27
2022-09-07T12:48:54.833Z,5.43
2022-09-07T12:50:59.072Z,5.70
2022-09-07T12:53:18.781Z,8.60
2022-09-07T12:56:15.150Z,4.77
2022-09-07T12:58:01.636Z,5.00
2022-09-07T13:00:11.779Z,5.23
2022-09-07T13:02:26.974Z,4.67
2022-09-07T13:04:41.483Z,4.80
2022-09-07T13:07:04.569Z,4.90
2022-09-07T13:09:26.274Z,4.37
2022-09-07T13:11:34.133Z,4.70
2022-09-07T13:16:27.128Z,4.60
2022-09-07T13:18:41.105Z,4.80
2022-09-07T13:20:43.685Z,5.27
2022-09-07T13:23:09.153Z,6.00
2022-09-07T13:25:38.529Z,5.13
2022-09-07T13:27:51.235Z,4.83
2022-09-07T13:29:56.042Z,4.67
2022-09-07T13:32:00.192Z,5.17
2022-09-07T13:34:23.438Z,5.07
2022-09-07T13:36:38.615Z,4.60
2022-09-07T13:38:43.970Z,4.50
2022-09-07T13:40:47.292Z,4.80
2022-09-07T13:42:51.556Z,4.20
2022-09-07T13:44:55.950Z,5.07
2022-09-07T13:47:03.782Z,4.23
2022-09-07T13:49:11.192Z,4.43
2022-09-07T13:51:15.503Z,4.47
2022-09-07T13:53:30.892Z,4.00
2022-09-07T13:55:35.235Z,4.47
2022-09-07T13:57:44.940Z,3.87
2022-09-07T13:59:49.052Z,4.67
2022-09-07T14:01:52.136Z,4.23
2022-09-07T14:03:55.735Z,4.70
2022-09-07T14:06:29.988Z,4.00
2022-09-07T14:08:35.699Z,3.70
2022-09-07T14:10:40.708Z,4.00
2022-09-07T14:12:44.402Z,3.97
2022-09-07T14:14:47.608Z,3.83
2022-09-07T14:16:55.483Z,3.60
2022-09-07T14:18:59.299Z,3.80
2022-09-07T14:21:01.902Z,3.40
2022-09-07T14:23:11.639Z,4.33
2022-09-07T14:25:16.700Z,4.17
2022-09-07T14:27:21.826Z,3.80
2022-09-07T14:29:25.506Z,4.03
2022-09-07T14:31:28.595Z,3.70
2022-09-07T14:33:32.660Z,3.37
2022-09-07T14:35:38.074Z,3.63
2022-09-07T14:37:40.691Z,3.10
2022-09-07T14:39:44.715Z,3.53
2022-09-07T14:41:54.010Z,3.53
2022-09-07T14:43:57.641Z,3.37
2022-09-07T14:46:13.131Z,3.70
2022-09-07T14:48:18.459Z,3.33
2022-09-07T14:50:24.065Z,3.60
2022-09-07T14:52:31.297Z,3.27
2022-09-07T14:54:37.717Z,3.20
2022-09-07T14:56:41.533Z,3.60
2022-09-07T14:58:44.637Z,3.50
2022-09-07T15:01:37.229Z,3.50
2022-09-07T15:03:27.003Z,3.43
2022-09-07T15:05:31.203Z,3.30
2022-09-07T15:07:38.321Z,3.03
2022-09-07T15:09:40.911Z,3.33
2022-09-07T15:11:43.534Z,3.13
2022-09-07T15:13:46.172Z,2.80
2022-09-07T15:15:57.318Z,2.63
2022-09-07T15:18:07.464Z,2.80
2022-09-07T15:20:35.679Z,2.97
2022-09-07T15:22:38.402Z,2.87
2022-09-07T15:24:41.339Z,3.40
2022-09-07T15:29:18.196Z,2.60
2022-09-07T15:33:43.958Z,3.40
2022-09-07T15:35:50.416Z,3.00
2022-09-07T15:38:02.776Z,3.23
2022-09-07T15:40:14.196Z,3.20
2022-09-07T15:44:41.504Z,3.00
2022-09-07T15:47:42.471Z,3.33
2022-09-07T15:49:06.724Z,3.00
2022-09-07T15:55:59.577Z,3.37
2022-09-07T15:58:11.531Z,2.47
2022-09-07T16:00:15.231Z,3.27
2022-09-07T16:04:41.413Z,3.00
2022-09-07T16:06:48.258Z,3.10
2022-09-07T16:08:51.813Z,3.40
2022-09-07T16:11:04.319Z,3.27
2022-09-07T16:13:12.121Z,3.07
2022-09-07T16:15:19.495Z,3.53
2022-09-07T16:17:26.898Z,3.37
2022-09-07T16:19:34.615Z,3.00
2022-09-07T16:21:41.034Z,3.20
2022-09-07T16:24:01.241Z,3.60
2022-09-07T16:26:11.082Z,3.40
2022-09-07T16:28:14.725Z,3.17
2022-09-07T16:30:17.718Z,3.67
2022-09-07T16:34:44.844Z,3.07
2022-09-07T16:36:48.346Z,3.93
2022-09-07T16:38:57.061Z,3.80
2022-09-07T16:41:00.336Z,3.00
2022-09-07T16:43:06.872Z,3.20
2022-09-07T16:47:33.177Z,3.60
2022-09-07T16:49:36.062Z,4.10
2022-09-07T16:52:03.101Z,3.70
2022-09-07T16:54:07.316Z,3.50
2022-09-07T16:56:11.010Z,4.30
2022-09-07T17:00:37.920Z,4.17
2022-09-07T17:02:43.355Z,3.83
2022-09-07T17:04:46.428Z,4.20
2022-09-07T17:06:51.915Z,4.00
2022-09-07T17:08:54.710Z,3.60
2022-09-07T17:11:01.380Z,3.87
2022-09-07T17:13:07.512Z,3.53
2022-09-07T17:15:21.170Z,3.53
2022-09-07T17:17:24.238Z,4.10
2022-09-07T17:19:29.340Z,4.07
2022-09-07T17:21:33.264Z,3.40
2022-09-07T17:23:45.606Z,3.73
2022-09-07T17:25:52.745Z,3.13
2022-09-07T17:27:56.690Z,3.60
2022-09-07T17:29:59.362Z,3.73
2022-09-07T17:34:25.026Z,3.87
2022-09-07T17:36:28.247Z,3.73
2022-09-07T17:40:54.896Z,3.63
2022-09-07T17:45:21.687Z,3.73
2022-09-07T17:47:24.349Z,3.80
2022-09-07T17:49:28.855Z,3.70
2022-09-07T17:51:32.517Z,3.80
2022-09-07T17:53:35.592Z,3.80
2022-09-07T17:55:38.244Z,3.77
2022-09-07T17:57:41.112Z,3.97
2022-09-07T18:02:07.648Z,3.53
2022-09-07T18:04:10.414Z,3.87
2022-09-07T18:06:13.618Z,3.30
2022-09-07T18:08:16.258Z,3.17
2022-09-07T18:10:19.283Z,3.47
2022-09-07T18:12:22.580Z,3.83
2022-09-07T18:14:25.489Z,3.77
2022-09-07T18:16:30.193Z,4.50
2022-09-07T18:18:32.854Z,4.37
2022-09-07T18:20:35.502Z,3.97
2022-09-07T18:22:38.382Z,3.70
2022-09-07T18:24:40.982Z,4.87
2022-09-07T18:26:43.718Z,4.10
2022-09-07T18:29:10.473Z,3.50
2022-09-07T18:31:12.540Z,4.20
2022-09-07T18:33:16.673Z,4.03
2022-09-07T18:35:19.366Z,3.80
2022-09-07T18:37:22.003Z,4.27
2022-09-07T18:39:24.814Z,4.33
2022-09-07T18:41:27.708Z,3.90
2022-09-07T18:43:31.814Z,4.17
2022-09-07T18:45:34.719Z,4.10
2022-09-07T18:47:39.911Z,3.60
2022-09-07T18:49:54.702Z,4.17
2022-09-07T18:54:20.394Z,3.70
2022-09-07T18:56:23.251Z,4.27
2022-09-07T18:58:26.483Z,3.93
2022-09-07T19:00:29.703Z,3.90
2022-09-07T19:02:44.019Z,4.30
2022-09-07T19:07:12.097Z,4.50
2022-09-07T19:09:14.808Z,4.23
2022-09-07T19:11:18.533Z,3.57
2022-09-07T19:13:22.142Z,3.60
2022-09-07T19:15:26.118Z,3.80
2022-09-07T19:17:28.751Z,3.80
2022-09-07T19:19:32.868Z,4.00
2022-09-07T19:21:38.759Z,4.50
2022-09-07T19:23:41.488Z,4.17
2022-09-07T19:25:44.376Z,4.20
2022-09-07T19:27:47.038Z,4.37
2022-09-07T19:29:50.198Z,4.30
2022-09-07T19:32:05.437Z,4.57
2022-09-07T19:34:08.110Z,4.60
2022-09-07T19:36:10.937Z,4.83
2022-09-07T19:38:14.851Z,5.50
2022-09-07T19:40:19.461Z,5.30
2022-09-07T19:42:22.401Z,5.40
2022-09-07T19:44:25.056Z,5.43
2022-09-07T19:46:41.318Z,5.60
2022-09-07T19:48:43.994Z,5.50
2022-09-07T19:50:46.888Z,5.70
2022-09-07T19:52:49.607Z,5.47
2022-09-07T19:57:22.997Z,5.30
2022-09-07T19:59:25.696Z,5.83
2022-09-07T20:01:28.493Z,6.13
2022-09-07T20:03:31.652Z,5.67
2022-09-07T20:05:34.407Z,5.27
2022-09-07T20:07:37.015Z,5.50
2022-09-07T20:09:39.661Z,5.67
2022-09-07T20:11:46.479Z,5.63
2022-09-07T20:13:49.632Z,6.10
2022-09-07T20:15:52.361Z,5.93
2022-09-07T20:17:55.563Z,5.63
2022-09-07T20:20:07.801Z,5.57
2022-09-07T20:22:22.266Z,5.60
2022-09-07T20:24:24.932Z,5.90
2022-09-07T20:26:30.243Z,6.13
2022-09-07T20:28:35.179Z,5.57
2022-09-07T20:30:43.802Z,5.40
2022-09-07T20:32:47.038Z,5.60
2022-09-07T20:34:50.672Z,5.37
2022-09-07T20:36:55.650Z,5.73
2022-09-07T20:38:58.547Z,5.97
2022-09-07T20:41:02.077Z,5.60
2022-09-07T20:43:05.041Z,5.70
2022-09-07T20:45:09.829Z,5.80
2022-09-07T20:47:12.422Z,5.37
2022-09-07T20:49:15.304Z,5.40
2022-09-07T20:51:21.331Z,5.30
2022-09-07T20:53:24.253Z,5.50
2022-09-07T20:55:27.302Z,5.40
2022-09-07T20:57:31.030Z,5.23
2022-09-07T20:59:34.533Z,5.40
2022-09-07T21:01:38.760Z,5.57
2022-09-07T21:03:43.250Z,5.17
2022-09-07T21:05:49.119Z,5.30
2022-09-07T21:07:53.422Z,5.10
2022-09-07T21:09:57.928Z,5.40
2022-09-07T21:12:00.590Z,5.17
2022-09-07T21:14:06.114Z,5.27
2022-09-07T21:16:10.810Z,5.37
2022-09-07T21:18:16.502Z,4.40
2022-09-07T21:20:23.068Z,4.60
2022-09-07T21:22:26.110Z,5.57
2022-09-07T21:24:28.869Z,5.20
2022-09-07T21:26:32.526Z,5.53
2022-09-07T21:28:35.254Z,5.30
2022-09-07T21:30:38.454Z,5.17
2022-09-07T21:32:41.319Z,5.23
2022-09-07T21:34:45.250Z,5.10
2022-09-07T21:36:48.003Z,5.10
2022-09-07T21:38:50.998Z,4.70
2022-09-07T21:40:53.839Z,5.23
2022-09-07T21:42:56.525Z,5.03
2022-09-07T21:44:59.708Z,5.13
2022-09-07T21:47:02.906Z,4.87
2022-09-07T21:49:05.857Z,5.07
2022-09-07T21:51:10.044Z,4.70
2022-09-07T21:53:13.271Z,5.10
2022-09-07T21:55:16.166Z,5.40
2022-09-07T21:57:18.889Z,4.97
2022-09-07T21:59:22.033Z,4.80
2022-09-07T22:01:25.893Z,5.00
2022-09-07T22:03:29.059Z,4.57
2022-09-07T22:05:32.039Z,4.83
2022-09-07T22:07:36.294Z,5.20
2022-09-07T22:09:39.864Z,5.17
2022-09-07T22:11:45.875Z,4.80
2022-09-07T22:13:48.937Z,5.50
2022-09-07T22:15:52.113Z,4.67
2022-09-07T22:17:55.277Z,4.87
2022-09-07T22:19:58.055Z,5.00
2022-09-07T22:22:00.922Z,4.97
2022-09-07T22:24:06.033Z,5.10
2022-09-07T22:26:09.472Z,5.27
2022-09-07T22:28:12.455Z,4.20
2022-09-07T22:30:15.482Z,4.80
2022-09-07T22:32:18.083Z,4.10
2022-09-07T22:34:21.116Z,4.60
2022-09-07T22:36:25.638Z,4.60
2022-09-07T22:38:29.012Z,4.20
2022-09-07T22:40:32.951Z,4.60
2022-09-07T22:42:36.471Z,4.30
2022-09-07T22:44:39.519Z,4.53
2022-09-07T22:46:43.441Z,4.20
2022-09-07T22:48:46.221Z,4.43
2022-09-07T22:50:55.652Z,4.00
2022-09-07T22:52:58.271Z,4.63
2022-09-07T22:55:00.860Z,4.23
2022-09-07T22:57:05.145Z,4.17
2022-09-07T22:59:08.943Z,4.47
2022-09-07T23:01:11.531Z,4.00
2022-09-07T23:03:14.249Z,4.03
2022-09-07T23:05:16.996Z,4.27
2022-09-07T23:07:20.047Z,4.23
2022-09-07T23:09:22.636Z,3.73
2022-09-07T23:11:25.610Z,4.10
2022-09-07T23:13:29.709Z,4.03
2022-09-07T23:15:33.907Z,3.83
2022-09-07T23:17:36.770Z,4.40
2022-09-07T23:19:39.665Z,4.17
2022-09-07T23:21:42.616Z,4.03
2022-09-07T23:23:49.491Z,4.03
2022-09-07T23:25:52.577Z,4.03
2022-09-07T23:27:55.444Z,4.33
2022-09-07T23:29:59.669Z,3.50
2022-09-07T23:32:03.089Z,4.03
2022-09-07T23:34:05.958Z,3.20
2022-09-07T23:36:09.175Z,3.97
2022-09-07T23:38:12.067Z,3.67
2022-09-07T23:40:15.549Z,4.13
2022-09-07T23:42:18.394Z,4.30
2022-09-07T23:44:21.251Z,4.13
2022-09-07T23:46:25.536Z,3.97
2022-09-07T23:48:28.909Z,4.00
2022-09-07T23:50:33.712Z,3.70
2022-09-07T23:52:37.359Z,3.40
2022-09-07T23:54:40.268Z,4.53
2022-09-07T23:56:44.032Z,4.00
2022-09-07T23:58:46.923Z,3.77
